TimePST,TemperatureF,Dew PointF,Humidity,Sea Level PressureIn,VisibilityMPH,Wind Direction,Wind SpeedMPH,Gust SpeedMPH,PrecipitationIn,Events,Conditions,WindDirDegrees,DateUTC
12:53 AM,43.0,37.0,80,29.83,10.0,South,6.9,-,N/A,,Scattered Clouds,180,2012-11-18 08:53:00
1:53 AM,44.1,36.0,73,29.83,10.0,South,10.4,-,N/A,,Clear,180,2012-11-18 09:53:00
2:53 AM,41.0,35.1,79,29.86,10.0,South,9.2,-,N/A,,Clear,190,2012-11-18 10:53:00
3:53 AM,42.1,34.0,73,29.87,10.0,South,8.1,-,N/A,,Clear,180,2012-11-18 11:53:00
4:53 AM,42.1,33.1,70,29.90,10.0,Calm,Calm,-,N/A,,Clear,0,2012-11-18 12:53:00
5:53 AM,44.1,32.0,63,29.90,10.0,SE,5.8,-,N/A,,Clear,130,2012-11-18 13:53:00
6:53 AM,39.0,33.1,79,29.90,10.0,East,6.9,-,N/A,,Clear,90,2012-11-18 14:53:00
7:53 AM,42.1,34.0,73,29.91,10.0,SSE,10.4,-,N/A,,Clear,160,2012-11-18 15:53:00
8:53 AM,43.0,36.0,76,29.91,10.0,NE,8.1,-,N/A,,Overcast,40,2012-11-18 16:53:00
9:53 AM,46.9,36.0,66,29.91,10.0,SSE,8.1,-,N/A,,Overcast,150,2012-11-18 17:53:00
10:53 AM,50.0,34.0,54,29.91,10.0,SE,5.8,-,N/A,,Overcast,140,2012-11-18 18:53:00
11:53 AM,52.0,35.1,53,29.88,10.0,ESE,6.9,-,N/A,,Mostly Cloudy,120,2012-11-18 19:53:00
12:53 PM,55.0,35.1,47,29.85,10.0,South,11.5,-,N/A,,Mostly Cloudy,170,2012-11-18 20:53:00
1:53 PM,54.0,34.0,47,29.85,10.0,South,13.8,-,N/A,,Overcast,170,2012-11-18 21:53:00
2:53 PM,54.0,36.0,51,29.84,10.0,SSE,12.7,-,N/A,,Mostly Cloudy,160,2012-11-18 22:53:00
3:53 PM,53.1,35.1,50,29.84,10.0,SSE,12.7,-,N/A,,Overcast,160,2012-11-18 23:53:00
4:53 PM,53.1,34.0,48,29.84,10.0,SSE,11.5,-,N/A,,Overcast,150,2012-11-19 00:53:00
5:53 PM,51.1,36.0,56,29.83,10.0,SE,9.2,-,N/A,,Mostly Cloudy,130,2012-11-19 01:53:00
6:53 PM,55.9,30.9,39,29.81,10.0,SSE,18.4,31.1,N/A,,Scattered Clouds,160,2012-11-19 02:53:00
7:53 PM,54.0,30.9,41,29.81,10.0,South,17.3,27.6,N/A,,Overcast,180,2012-11-19 03:53:00
8:53 PM,50.0,39.0,66,29.80,10.0,SE,16.1,-,0.00,Rain,Light Rain,140,2012-11-19 04:53:00
9:53 PM,51.1,39.0,63,29.81,10.0,SE,12.7,-,0.00,,Overcast,130,2012-11-19 05:53:00
10:53 PM,50.0,39.0,66,29.78,10.0,East,11.5,-,N/A,,Overcast,100,2012-11-19 06:53:00
11:53 PM,53.1,37.9,57,29.77,10.0,SE,18.4,27.6,N/A,,Overcast,140,2012-11-19 07:53:00